地図

経路データ

SID SEASON NUMBER BASIN SUBBASIN NAME ISO_TIME NATURE LAT LON WMO_WIND WMO_PRES WMO_AGENCY TRACK_TYPE DIST2LAND LANDFALL IFLAG USA_AGENCY USA_ATCF_ID USA_LAT USA_LON USA_RECORD USA_STATUS USA_WIND USA_PRES USA_SSHS USA_R34_NE USA_R34_SE USA_R34_SW USA_R34_NW USA_R50_NE USA_R50_SE USA_R50_SW USA_R50_NW USA_R64_NE USA_R64_SE USA_R64_SW USA_R64_NW USA_POCI USA_ROCI USA_RMW USA_EYE TOKYO_LAT TOKYO_LON TOKYO_GRADE TOKYO_WIND TOKYO_PRES TOKYO_R50_DIR TOKYO_R50_LONG TOKYO_R50_SHORT TOKYO_R30_DIR TOKYO_R30_LONG TOKYO_R30_SHORT TOKYO_LAND CMA_LAT CMA_LON CMA_CAT CMA_WIND CMA_PRES HKO_LAT HKO_LON HKO_CAT HKO_WIND HKO_PRES NEWDELHI_LAT NEWDELHI_LON NEWDELHI_GRADE NEWDELHI_WIND NEWDELHI_PRES NEWDELHI_CI NEWDELHI_DP NEWDELHI_POCI REUNION_LAT REUNION_LON REUNION_TYPE REUNION_WIND REUNION_PRES REUNION_TNUM REUNION_CI REUNION_RMW REUNION_R34_NE REUNION_R34_SE REUNION_R34_SW REUNION_R34_NW REUNION_R50_NE REUNION_R50_SE REUNION_R50_SW REUNION_R50_NW REUNION_R64_NE REUNION_R64_SE REUNION_R64_SW REUNION_R64_NW BOM_LAT BOM_LON BOM_TYPE BOM_WIND BOM_PRES BOM_TNUM BOM_CI BOM_RMW BOM_R34_NE BOM_R34_SE BOM_R34_SW BOM_R34_NW BOM_R50_NE BOM_R50_SE BOM_R50_SW BOM_R50_NW BOM_R64_NE BOM_R64_SE BOM_R64_SW BOM_R64_NW BOM_ROCI BOM_POCI BOM_EYE BOM_POS_METHOD BOM_PRES_METHOD NADI_LAT NADI_LON NADI_CAT NADI_WIND NADI_PRES WELLINGTON_LAT WELLINGTON_LON WELLINGTON_WIND WELLINGTON_PRES DS824_LAT DS824_LON DS824_STAGE DS824_WIND DS824_PRES TD9636_LAT TD9636_LON TD9636_STAGE TD9636_WIND TD9636_PRES TD9635_LAT TD9635_LON TD9635_WIND TD9635_PRES TD9635_ROCI NEUMANN_LAT NEUMANN_LON NEUMANN_CLASS NEUMANN_WIND NEUMANN_PRES MLC_LAT MLC_LON MLC_CLASS MLC_WIND MLC_PRES USA_GUST BOM_GUST BOM_GUST_PER REUNION_GUST REUNION_GUST_PER USA_SEAHGT USA_SEARAD_NE USA_SEARAD_SE USA_SEARAD_SW USA_SEARAD_NW STORM_SPEED STORM_DIR
1888301N11091 1888 56 NI BB NOT_NAMED 1888-10-27 00:00:00 TS 10.6000 90.8000 main 700 700 _________O____ -1 10.6000 90.8000 TC 64 0 0
1888301N11091 1888 56 NI BB NOT_NAMED 1888-10-27 03:00:00 TS 10.6000 90.8000 main 700 700 _________PO___ -1 10.6000 90.8000 TC 64 10.6000 90.8000 4 0 0
1888301N11091 1888 56 NI BB NOT_NAMED 1888-10-27 06:00:00 TS 10.6006 90.7931 main 700 700 _________OP___ -1 10.6000 90.8000 TC 64 10.6016 90.7828 4 0 0
1888301N11091 1888 56 NI BB NOT_NAMED 1888-10-27 09:00:00 TS 10.6011 90.7882 main 700 700 _________PP___ -1 10.6000 90.8000 TC 64 10.6025 90.7725 4 0 0
1888301N11091 1888 56 NI BB NOT_NAMED 1888-10-27 12:00:00 TS 10.6011 90.7880 main 700 700 _________OP___ -1 10.6000 90.8000 TC 64 10.6022 90.7760 4 0 0
1888301N11091 1888 56 NI BB NOT_NAMED 1888-10-27 15:00:00 TS 10.6000 90.8000 main 700 700 _________PO___ -1 10.6000 90.8000 TC 64 10.6000 90.8000 4 0 95
1888301N11091 1888 56 NI BB NOT_NAMED 1888-10-27 18:00:00 TS 10.5979 90.8223 main 700 694 _________OP___ -1 10.6000 90.8000 TC 64 10.5959 90.8447 4 1 94
1888301N11091 1888 56 NI BB NOT_NAMED 1888-10-27 21:00:00 TS 10.5962 90.8562 main 694 694 _________PP___ -1 10.6000 90.8300 TC 64 10.5923 90.8825 4 0 0
1888301N11091 1888 56 NI BB NOT_NAMED 1888-10-28 00:00:00 TS 10.5963 90.8395 main 700 700 _________OP___ -1 10.6000 90.8000 TC 64 10.5927 90.8790 4 1 270
1888301N11091 1888 56 NI BB NOT_NAMED 1888-10-28 03:00:00 TS 10.5962 90.7262 main 706 706 _________PO___ -1 10.5925 90.6525 TC 64 10.6000 90.8000 4 3 271
1888301N11091 1888 56 NI BB NOT_NAMED 1888-10-28 06:00:00 TS 10.6049 90.4980 main 719 719 _________OP___ -1 10.6000 90.4000 TC 64 10.6099 90.5959 4 5 274
1888301N11091 1888 56 NI BB NOT_NAMED 1888-10-28 09:00:00 TS 10.6352 90.1875 main 738 736 _________PP___ -1 10.6426 90.0575 TC 64 10.6278 90.3175 4 6 277
1888301N11091 1888 56 NI BB NOT_NAMED 1888-10-28 12:00:00 TS 10.6784 89.8526 main 750 750 _________OP___ -1 10.7000 89.7000 TC 64 10.6567 90.0053 4 6 278
1888301N11091 1888 56 NI BB NOT_NAMED 1888-10-28 15:00:00 TS 10.7212 89.5637 main 772 772 _________PO___ -1 10.7425 89.4275 TC 64 10.7000 89.7000 4 5 281
1888301N11091 1888 56 NI BB NOT_NAMED 1888-10-28 18:00:00 TS 10.7761 89.3404 main 786 786 _________OP___ -1 10.8000 89.2000 TC 64 10.7523 89.4808 4 4 288
1888301N11091 1888 56 NI BB NOT_NAMED 1888-10-28 21:00:00 TS 10.8523 89.1436 main 793 793 _________PP___ -1 10.8849 89.0149 TC 64 10.8197 89.2723 4 4 293
1888301N11091 1888 56 NI BB NOT_NAMED 1888-10-29 00:00:00 TS 10.9511 88.9263 main 801 801 _________OP___ -1 11.0000 88.8000 TC 64 10.9022 89.0527 4 5 294
1888301N11091 1888 56 NI BB NOT_NAMED 1888-10-29 03:00:00 TS 11.0750 88.6363 main 817 817 _________PO___ -1 11.1500 88.4725 TC 64 11.0000 88.8000 4 7 292
1888301N11091 1888 56 NI BB NOT_NAMED 1888-10-29 06:00:00 TS 11.2053 88.2930 main 817 793 _________OP___ -1 11.3000 88.1000 TC 64 11.1107 88.4860 4 7 290
1888301N11091 1888 56 NI BB NOT_NAMED 1888-10-29 09:00:00 TS 11.3175 87.9437 main 783 758 _________PP___ -1 11.4000 87.7499 TC 64 11.2351 88.1375 4 7 288
1888301N11091 1888 56 NI BB NOT_NAMED 1888-10-29 12:00:00 TS 11.4335 87.5852 main 758 729 _________OP___ -1 11.5000 87.4000 TC 64 11.3669 87.7703 4 8 290
1888301N11091 1888 56 NI BB NOT_NAMED 1888-10-29 15:00:00 TS 11.5750 87.2250 main 729 706 _________PO___ -1 11.6500 87.0500 TC 64 11.5000 87.4000 4 7 292
1888301N11091 1888 56 NI BB NOT_NAMED 1888-10-29 18:00:00 TS 11.7144 86.8871 main 706 685 _________OP___ -1 11.8000 86.7000 TC 64 11.6287 87.0742 4 7 292
1888301N11091 1888 56 NI BB NOT_NAMED 1888-10-29 21:00:00 TS 11.8322 86.5586 main 685 654 _________PP___ -1 11.9074 86.3724 TC 64 11.7570 86.7448 4 7 289
1888301N11091 1888 56 NI BB NOT_NAMED 1888-10-30 00:00:00 TS 11.9409 86.1965 main 654 611 _________OP___ -1 12.0000 86.0000 TC 64 11.8817 86.3930 4 8 286
1888301N11091 1888 56 NI BB NOT_NAMED 1888-10-30 03:00:00 TS 12.0500 85.7612 main 610 556 _________PO___ -1 12.1000 85.5225 TC 64 12.0000 86.0000 4 9 283
1888301N11091 1888 56 NI BB NOT_NAMED 1888-10-30 06:00:00 TS 12.1536 85.2735 main 555 501 _________OP___ -1 12.2000 85.0000 TC 64 12.1072 85.5471 4 10 282
1888301N11091 1888 56 NI BB NOT_NAMED 1888-10-30 09:00:00 TS 12.2537 84.7761 main 500 446 _________PP___ -1 12.2999 84.5000 TC 64 12.2075 85.0523 4 10 281
1888301N11091 1888 56 NI BB NOT_NAMED 1888-10-30 12:00:00 TS 12.3520 84.2657 main 445 391 _________OP___ -1 12.4000 84.0000 TC 64 12.3040 84.5314 4 10 281
1888301N11091 1888 56 NI BB NOT_NAMED 1888-10-30 15:00:00 TS 12.4499 83.7537 main 391 334 _________PO___ -1 12.4999 83.5074 TC 64 12.4000 84.0000 4 10 281
1888301N11091 1888 56 NI BB NOT_NAMED 1888-10-30 18:00:00 TS 12.5562 83.2229 main 324 268 _________OP___ -1 12.6000 83.0000 TC 64 12.5124 83.4458 4 11 281
1888301N11091 1888 56 NI BB NOT_NAMED 1888-10-30 21:00:00 TS 12.6652 82.6552 main 268 213 _________PP___ -1 12.7076 82.4201 TC 64 12.6228 82.8903 4 11 281
1888301N11091 1888 56 NI BB NOT_NAMED 1888-10-31 00:00:00 TS 12.7609 82.1323 main 202 171 _________OP___ -1 12.8000 81.9000 TC 64 12.7218 82.3646 4 9 281
1888301N11091 1888 56 NI BB NOT_NAMED 1888-10-31 03:00:00 TS 12.8324 81.7312 main 161 127 _________PO___ -1 12.8648 81.5625 TC 64 12.8000 81.9000 4 7 279
1888301N11091 1888 56 NI BB NOT_NAMED 1888-10-31 06:00:00 TS 12.8730 81.4176 main 127 97 _________OP___ -1 12.9000 81.3000 TC 64 12.8460 81.5351 4 6 275
1888301N11091 1888 56 NI BB NOT_NAMED 1888-10-31 09:00:00 TS 12.8896 81.1161 main 97 65 _________PP___ -1 12.9075 81.0000 TC 64 12.8718 81.2323 4 6 272
1888301N11091 1888 56 NI BB NOT_NAMED 1888-10-31 12:00:00 TS 12.8934 80.8316 main 65 43 _________OP___ -1 12.9000 80.7000 TC 64 12.8867 80.9633 4 6 271
1888301N11091 1888 56 NI BB NOT_NAMED 1888-10-31 15:00:00 TS 12.8962 80.5500 main 43 10 _________PO___ -1 12.8925 80.4000 TC 56 12.9000 80.7000 4 5 272
1888301N11091 1888 56 NI BB NOT_NAMED 1888-10-31 18:00:00 TS 12.9108 80.2827 main 10 0 _________OP___ -1 12.9000 80.1000 TC 49 12.9188 80.4198 4 5 275
1888301N11091 1888 56 NI BB NOT_NAMED 1888-10-31 21:00:00 TS 12.9419 79.9936 main 0 0 _________PP___ -1 12.9401 79.8000 TC 41 12.9431 80.1227 4 6 277
1888301N11091 1888 56 NI BB NOT_NAMED 1888-11-01 00:00:00 TS 12.9805 79.7094 main 0 0 _________OP___ -1 13.0000 79.5000 TC 34 12.9708 79.8142 4 5 277
1888301N11091 1888 56 NI BB NOT_NAMED 1888-11-01 03:00:00 NR 13.0000 79.5000 main 0 __________O___ -1 TC 13.0000 79.5000 2 4 275

IBTrACS Databaseについて

本データベースは、米国NOAAが公開する1842年以降の世界の熱帯低気圧のベストトラックデータアーカイブInternational Best Track Archive for Climate Stewardship (IBTrACS)を、ウェブで閲覧しやすい形式に変換したものです。

最終更新日:2021-12-03